Time;durP1;ratioP1;P1;durP2;ratioP2;P2;SDS_P1;SDS_P2;PMS_P1;PMS_P2;Temp;Humidity;BMP_temperature;BMP_pressure;BME280_temperature;BME280_humidity;BME280_pressure;Samples;Min_cycle;Max_cycle;Signal;HPM_P1;HPM_P2
2020/12/10 00:00:07;;;;;;;;;26.25;23.75;;;;;;;;4978539;28;11628;-83
2020/12/10 00:02:34;;;;;;;;;30.00;25.00;;;;;;;;4977415;28;11654;-82
2020/12/10 00:05:01;;;;;;;;;30.25;26.75;;;;;;;;4976788;28;11640;-81
2020/12/10 00:07:28;;;;;;;;;27.25;23.00;;;;;;;;4977109;28;11635;-80
2020/12/10 00:09:56;;;;;;;;;29.75;25.00;;;;;;;;4975605;28;11658;-81
2020/12/10 00:12:23;;;;;;;;;20.75;20.75;;;;;;;;4978334;28;11633;-81
2020/12/10 00:14:53;;;;;;;;;28.50;22.25;;;;;;;;4977163;28;12491;-80
2020/12/10 00:17:26;;;;;;;;;24.50;21.00;;;;;;;;4974773;28;11687;-82
2020/12/10 00:19:53;;;;;;;;;32.00;26.50;;;;;;;;4976735;28;11625;-83
2020/12/10 00:22:20;;;;;;;;;27.00;22.75;;;;;;;;4976870;28;11636;-83
2020/12/10 00:24:48;;;;;;;;;23.00;20.25;;;;;;;;4978846;28;11639;-83
2020/12/10 00:27:16;;;;;;;;;26.00;21.25;;;;;;;;4978586;28;11639;-79
2020/12/10 00:29:45;;;;;;;;;24.75;22.00;;;;;;;;4974979;28;11636;-83
2020/12/10 00:32:13;;;;;;;;;26.75;24.00;;;;;;;;4975581;28;11611;-81
2020/12/10 00:34:40;;;;;;;;;31.25;27.25;;;;;;;;4977932;28;11643;-83
2020/12/10 00:37:07;;;;;;;;;27.75;23.75;;;;;;;;4976260;28;11650;-82
2020/12/10 00:39:35;;;;;;;;;33.50;28.00;;;;;;;;4978538;28;11660;-83
2020/12/10 00:42:01;;;;;;;;;32.75;28.00;;;;;;;;4978130;28;12411;-82
2020/12/10 00:44:30;;;;;;;;;26.50;20.00;;;;;;;;4974858;28;11618;-84
2020/12/10 00:46:56;;;;;;;;;23.00;20.75;;;;;;;;4978520;28;11670;-83
2020/12/10 00:49:24;;;;;;;;;43.75;32.75;;;;;;;;4982998;28;11649;-83
2020/12/10 00:51:52;;;;;;;;;29.25;26.50;;;;;;;;4977125;28;11676;-82
2020/12/10 00:54:20;;;;;;;;;27.25;25.50;;;;;;;;4977965;28;12427;-84
2020/12/10 00:56:47;;;;;;;;;28.00;23.00;;;;;;;;4973278;28;11649;-83
2020/12/10 00:59:14;;;;;;;;;42.50;25.50;;;;;;;;4976348;28;11707;-83
2020/12/10 01:01:43;;;;;;;;;29.00;29.00;;;;;;;;4974577;28;11597;-82
2020/12/10 01:04:10;;;;;;;;;32.50;28.75;;;;;;;;4977942;28;11625;-82
2020/12/10 01:06:37;;;;;;;;;32.50;26.50;;;;;;;;4978130;28;11648;-82
2020/12/10 01:09:06;;;;;;;;;27.00;26.00;;;;;;;;4974844;28;11638;-81
2020/12/10 01:11:34;;;;;;;;;28.50;27.00;;;;;;;;4972464;28;11713;-82
2020/12/10 01:14:01;;;;;;;;;30.00;24.50;;;;;;;;4979279;28;11625;-81
2020/12/10 01:16:28;;;;;;;;;38.50;32.00;;;;;;;;4977675;28;11649;-80
2020/12/10 01:18:56;;;;;;;;;22.50;22.25;;;;;;;;4970593;28;11617;-80
2020/12/10 01:21:30;;;;;;;;;30.50;25.00;;;;;;;;4977924;28;11634;-80
2020/12/10 01:23:57;;;;;;;;;37.00;32.25;;;;;;;;4974037;28;11640;-80
2020/12/10 01:26:25;;;;;;;;;29.00;24.25;;;;;;;;4982644;28;11652;-80
2020/12/10 01:28:52;;;;;;;;;34.00;31.00;;;;;;;;4982578;28;11651;-79
2020/12/10 01:31:19;;;;;;;;;37.75;27.75;;;;;;;;4981045;28;11611;-80
2020/12/10 01:33:46;;;;;;;;;38.50;35.50;;;;;;;;4982292;28;11658;-80
2020/12/10 01:36:18;;;;;;;;;38.50;34.75;;;;;;;;4976136;28;11655;-82
2020/12/10 01:38:45;;;;;;;;;31.25;26.50;;;;;;;;4962135;28;11664;-81
2020/12/10 01:41:12;;;;;;;;;28.00;28.00;;;;;;;;4979511;28;11646;-81
2020/12/10 01:43:39;;;;;;;;;39.00;29.50;;;;;;;;4975146;28;11651;-80
2020/12/10 01:46:06;;;;;;;;;25.25;23.25;;;;;;;;4979958;28;12406;-80
2020/12/10 01:48:34;;;;;;;;;29.00;27.75;;;;;;;;4978589;28;11644;-81
2020/12/10 01:51:00;;;;;;;;;26.75;26.75;;;;;;;;4979072;28;11655;-81
2020/12/10 01:53:28;;;;;;;;;33.00;25.50;;;;;;;;4983360;28;11629;-82
2020/12/10 01:55:55;;;;;;;;;23.75;21.00;;;;;;;;4982339;28;11660;-82
2020/12/10 01:58:22;;;;;;;;;37.25;25.75;;;;;;;;4978640;28;11636;-81
2020/12/10 02:00:51;;;;;;;;;23.75;21.50;;;;;;;;4977108;28;11644;-82
2020/12/10 02:03:18;;;;;;;;;15.25;11.00;;;;;;;;4982145;28;11741;-79
2020/12/10 02:05:46;;;;;;;;;32.75;27.50;;;;;;;;4973123;28;11632;-81
2020/12/10 02:08:13;;;;;;;;;33.25;24.00;;;;;;;;4980616;28;11622;-81
2020/12/10 02:10:41;;;;;;;;;27.25;22.75;;;;;;;;4977198;28;11664;-82
2020/12/10 02:13:08;;;;;;;;;23.50;20.50;;;;;;;;4981959;28;11659;-81
2020/12/10 02:15:35;;;;;;;;;17.50;14.25;;;;;;;;4978508;28;11667;-81
2020/12/10 02:18:04;;;;;;;;;26.50;24.75;;;;;;;;4981199;28;12528;-81
2020/12/10 02:20:31;;;;;;;;;35.75;25.00;;;;;;;;4983360;28;11637;-81
2020/12/10 02:23:03;;;;;;;;;23.50;21.50;;;;;;;;4977013;28;11681;-81
2020/12/10 02:25:31;;;;;;;;;29.00;27.25;;;;;;;;4981485;28;11591;-80
2020/12/10 02:27:59;;;;;;;;;21.50;17.50;;;;;;;;4978839;28;11687;-82
2020/12/10 02:30:27;;;;;;;;;24.50;22.00;;;;;;;;4984229;28;11577;-84
2020/12/10 02:32:58;;;;;;;;;37.00;27.50;;;;;;;;4985660;28;11719;-85
2020/12/10 02:35:26;;;;;;;;;29.75;24.75;;;;;;;;4970478;28;11634;-82
2020/12/10 02:37:55;;;;;;;;;22.25;21.50;;;;;;;;4981417;28;11741;-83
2020/12/10 02:40:23;;;;;;;;;26.75;20.75;;;;;;;;4979509;28;11665;-82
2020/12/10 02:42:50;;;;;;;;;26.00;21.25;;;;;;;;4980985;28;11704;-84
2020/12/10 02:45:18;;;;;;;;;23.75;19.25;;;;;;;;4979828;28;11616;-82
2020/12/10 02:47:45;;;;;;;;;30.00;24.25;;;;;;;;4973626;28;11669;-84
2020/12/10 02:50:12;;;;;;;;;21.50;17.75;;;;;;;;4977864;28;11652;-82
2020/12/10 02:52:39;;;;;;;;;22.00;18.50;;;;;;;;4980085;28;11659;-82
2020/12/10 02:55:06;;;;;;;;;23.50;22.75;;;;;;;;4976485;28;11613;-82
2020/12/10 02:57:34;;;;;;;;;25.50;21.00;;;;;;;;4977070;28;11673;-81
2020/12/10 03:00:01;;;;;;;;;26.25;24.75;;;;;;;;4981376;28;11626;-82
2020/12/10 03:02:28;;;;;;;;;19.75;19.25;;;;;;;;4979061;28;11610;-81
2020/12/10 03:04:55;;;;;;;;;27.75;18.75;;;;;;;;4978349;28;11615;-81
2020/12/10 03:07:22;;;;;;;;;22.50;18.25;;;;;;;;4983559;28;11643;-81
2020/12/10 03:09:48;;;;;;;;;26.25;18.75;;;;;;;;4983039;28;11844;-81
2020/12/10 03:12:15;;;;;;;;;20.50;14.00;;;;;;;;4977880;28;11653;-82
2020/12/10 03:14:43;;;;;;;;;19.00;14.25;;;;;;;;4980790;28;11617;-81
2020/12/10 03:17:10;;;;;;;;;25.00;18.00;;;;;;;;4978633;28;11625;-81
2020/12/10 03:19:37;;;;;;;;;15.00;13.75;;;;;;;;4973581;28;11655;-82
2020/12/10 03:22:04;;;;;;;;;29.25;16.00;;;;;;;;4979257;28;11588;-84
2020/12/10 03:24:31;;;;;;;;;17.25;15.75;;;;;;;;4980589;28;11657;-83
2020/12/10 03:27:01;;;;;;;;;21.75;15.00;;;;;;;;4969054;28;11643;-79
2020/12/10 03:29:28;;;;;;;;;16.25;16.25;;;;;;;;4981282;28;11633;-83
2020/12/10 03:31:56;;;;;;;;;18.75;15.75;;;;;;;;4977954;28;11588;-82
2020/12/10 03:34:23;;;;;;;;;22.00;19.50;;;;;;;;4974904;28;11644;-80
2020/12/10 03:36:51;;;;;;;;;13.25;11.25;;;;;;;;4979721;28;11671;-83
2020/12/10 03:39:19;;;;;;;;;15.25;14.50;;;;;;;;4974963;28;11600;-84
2020/12/10 03:41:46;;;;;;;;;16.00;11.75;;;;;;;;4970642;28;11649;-81
2020/12/10 03:44:13;;;;;;;;;14.75;12.00;;;;;;;;4979684;28;11614;-82
2020/12/10 03:46:40;;;;;;;;;13.25;11.00;;;;;;;;4973281;28;11641;-84
2020/12/10 03:49:09;;;;;;;;;20.25;15.75;;;;;;;;4979048;28;11605;-81
2020/12/10 03:51:36;;;;;;;;;15.25;13.25;;;;;;;;4977428;28;11776;-84
2020/12/10 03:54:04;;;;;;;;;10.75;6.75;;;;;;;;4982038;28;11602;-81
2020/12/10 03:56:31;;;;;;;;;11.25;11.00;;;;;;;;4978654;28;11575;-83
2020/12/10 03:58:58;;;;;;;;;15.50;14.75;;;;;;;;4975399;28;11581;-81
2020/12/10 04:01:25;;;;;;;;;16.50;14.00;;;;;;;;4973721;28;11749;-82
2020/12/10 04:03:52;;;;;;;;;15.25;12.50;;;;;;;;4968995;28;11675;-81
2020/12/10 04:06:20;;;;;;;;;7.75;5.00;;;;;;;;4978740;28;11651;-81
2020/12/10 04:08:47;;;;;;;;;15.75;13.25;;;;;;;;4981200;28;11566;-81
2020/12/10 04:11:14;;;;;;;;;12.25;9.50;;;;;;;;4978944;28;11642;-80
2020/12/10 04:13:41;;;;;;;;;11.25;9.00;;;;;;;;4978097;28;11621;-80
2020/12/10 04:16:08;;;;;;;;;12.25;11.50;;;;;;;;4981309;28;11611;-81
2020/12/10 04:18:39;;;;;;;;;19.00;16.00;;;;;;;;4980185;28;11598;-81
2020/12/10 04:21:06;;;;;;;;;15.25;12.00;;;;;;;;4983296;28;11644;-80
2020/12/10 04:23:34;;;;;;;;;12.75;11.25;;;;;;;;4979117;28;11643;-80
2020/12/10 04:26:02;;;;;;;;;15.50;13.00;;;;;;;;4986202;28;11603;-76
2020/12/10 04:28:29;;;;;;;;;15.25;12.50;;;;;;;;4978591;28;11652;-77
2020/12/10 04:30:56;;;;;;;;;17.00;14.00;;;;;;;;4979517;28;11539;-78
2020/12/10 04:33:23;;;;;;;;;15.00;15.00;;;;;;;;4971818;28;11679;-78
2020/12/10 04:35:49;;;;;;;;;15.25;13.75;;;;;;;;4974895;28;11737;-80
2020/12/10 04:38:16;;;;;;;;;13.75;10.50;;;;;;;;4982165;28;11637;-83
2020/12/10 04:40:44;;;;;;;;;22.75;13.50;;;;;;;;4985686;28;11630;-82
2020/12/10 04:43:12;;;;;;;;;13.25;12.25;;;;;;;;4978665;28;11619;-82
2020/12/10 04:45:39;;;;;;;;;15.75;11.75;;;;;;;;4973558;28;11661;-82
2020/12/10 04:48:06;;;;;;;;;15.50;15.50;;;;;;;;4979427;28;11762;-82
2020/12/10 04:50:36;;;;;;;;;12.00;12.00;;;;;;;;4977471;28;11598;-81
2020/12/10 04:53:03;;;;;;;;;13.00;10.75;;;;;;;;4979838;28;11618;-82
2020/12/10 04:55:31;;;;;;;;;11.00;11.00;;;;;;;;4982580;28;11615;-84
2020/12/10 04:58:00;;;;;;;;;13.25;11.25;;;;;;;;4974011;28;11623;-82
2020/12/10 05:00:28;;;;;;;;;18.25;15.75;;;;;;;;4978469;28;11550;-83
2020/12/10 05:02:55;;;;;;;;;15.50;11.25;;;;;;;;4984647;28;11605;-85
2020/12/10 05:05:24;;;;;;;;;8.00;8.00;;;;;;;;4985035;28;11716;-83
2020/12/10 05:07:51;;;;;;;;;14.00;12.50;;;;;;;;4981592;28;11609;-84
2020/12/10 05:10:18;;;;;;;;;28.75;18.50;;;;;;;;4981552;28;12345;-83
2020/12/10 05:12:46;;;;;;;;;11.00;11.00;;;;;;;;4979070;28;11614;-82
2020/12/10 05:15:17;;;;;;;;;14.75;14.75;;;;;;;;4983828;28;11615;-83
2020/12/10 05:17:44;;;;;;;;;15.00;11.50;;;;;;;;4985073;28;11616;-82
2020/12/10 05:20:11;;;;;;;;;11.50;11.50;;;;;;;;4975061;28;11636;-85
2020/12/10 05:22:44;;;;;;;;;15.25;10.50;;;;;;;;4978032;28;11581;-83
2020/12/10 05:25:11;;;;;;;;;22.50;14.25;;;;;;;;4981112;28;12091;-82
2020/12/10 05:27:38;;;;;;;;;15.75;15.75;;;;;;;;4973961;28;11614;-83
2020/12/10 05:30:05;;;;;;;;;18.50;12.50;;;;;;;;4978843;28;11731;-82
2020/12/10 05:32:42;;;;;;;;;13.00;11.00;;;;;;;;4976770;28;11611;-82
2020/12/10 05:35:20;;;;;;;;;11.75;9.00;;;;;;;;4969591;28;11604;-82
2020/12/10 05:37:48;;;;;;;;;12.00;12.00;;;;;;;;4982805;28;11581;-81
2020/12/10 05:40:15;;;;;;;;;10.25;8.50;;;;;;;;4971229;28;11653;-82
2020/12/10 05:42:44;;;;;;;;;15.00;11.75;;;;;;;;4975315;28;11590;-82
2020/12/10 05:45:14;;;;;;;;;19.25;15.00;;;;;;;;4977787;28;11746;-82
2020/12/10 05:47:48;;;;;;;;;15.25;12.50;;;;;;;;4985225;28;11612;-85
2020/12/10 05:50:32;;;;;;;;;12.00;8.00;;;;;;;;5113101;27;9393;-85
2020/12/10 05:53:10;;;;;;;;;14.00;12.50;;;;;;;;5089330;28;11497;-83
2020/12/10 05:55:38;;;;;;;;;19.50;12.25;;;;;;;;5091847;28;11535;-82
2020/12/10 05:58:06;;;;;;;;;11.25;9.00;;;;;;;;5092991;28;11582;-82
2020/12/10 06:00:34;;;;;;;;;14.00;11.75;;;;;;;;5076391;27;11505;-83
2020/12/10 06:03:01;;;;;;;;;12.00;12.00;;;;;;;;5040054;28;11718;-84
2020/12/10 06:05:29;;;;;;;;;18.00;11.00;;;;;;;;5040576;28;11715;-84
2020/12/10 06:08:00;;;;;;;;;11.25;10.75;;;;;;;;5041194;28;12317;-82
2020/12/10 06:10:27;;;;;;;;;8.00;8.00;;;;;;;;5072630;28;11560;-83
2020/12/10 06:12:54;;;;;;;;;13.50;11.50;;;;;;;;5038062;28;11569;-85
2020/12/10 06:15:25;;;;;;;;;13.25;11.25;;;;;;;;5041244;28;11704;-82
2020/12/10 06:18:06;;;;;;;;;9.00;9.00;;;;;;;;5038457;28;11600;-83
2020/12/10 06:20:38;;;;;;;;;8.00;8.00;;;;;;;;5038975;28;11574;-83
2020/12/10 06:23:35;;;;;;;;;13.50;11.50;;;;;;;;5039091;28;11654;-85
2020/12/10 06:26:33;;;;;;;;;5.75;2.00;;;;;;;;5041684;28;11690;-85
2020/12/10 06:29:21;;;;;;;;;14.50;12.00;;;;;;;;5038384;28;11686;-87
2020/12/10 06:32:09;;;;;;;;;13.50;11.25;;;;;;;;5059657;28;11517;-77
2020/12/10 06:34:47;;;;;;;;;12.75;12.75;;;;;;;;5054796;28;11709;-75
2020/12/10 06:37:22;;;;;;;;;13.00;11.50;;;;;;;;5058088;28;12389;-75
2020/12/10 06:39:52;;;;;;;;;8.25;8.25;;;;;;;;5064043;28;11583;-76
2020/12/10 06:42:19;;;;;;;;;6.00;6.00;;;;;;;;5060888;28;11562;-76
2020/12/10 06:44:46;;;;;;;;;14.50;10.00;;;;;;;;5061006;28;12356;-76
2020/12/10 06:47:13;;;;;;;;;11.00;11.00;;;;;;;;5060075;28;11571;-76
2020/12/10 06:49:40;;;;;;;;;17.25;16.00;;;;;;;;5065535;28;11538;-77
2020/12/10 06:52:11;;;;;;;;;10.75;8.00;;;;;;;;5064846;28;11574;-76
2020/12/10 06:55:07;;;;;;;;;11.00;11.00;;;;;;;;5063728;28;11555;-76
2020/12/10 06:57:49;;;;;;;;;10.00;10.00;;;;;;;;5064773;28;11573;-76
2020/12/10 07:00:38;;;;;;;;;13.00;10.50;;;;;;;;5050054;28;11557;-76
2020/12/10 07:03:14;;;;;;;;;12.25;9.50;;;;;;;;5025819;28;12310;-76
2020/12/10 07:05:41;;;;;;;;;5.25;4.50;;;;;;;;5032231;28;11680;-76
2020/12/10 07:08:08;;;;;;;;;10.50;9.00;;;;;;;;5026386;28;11544;-70
2020/12/10 07:10:41;;;;;;;;;8.00;6.00;;;;;;;;5024040;28;11541;-70
2020/12/10 07:13:08;;;;;;;;;6.25;6.25;;;;;;;;5022610;28;11554;-70
2020/12/10 07:15:35;;;;;;;;;10.50;8.25;;;;;;;;5029159;28;11548;-70
2020/12/10 07:18:04;;;;;;;;;8.50;8.50;;;;;;;;5028571;28;11550;-70
2020/12/10 07:20:32;;;;;;;;;8.50;8.50;;;;;;;;5026100;28;11565;-70
2020/12/10 07:22:59;;;;;;;;;11.75;6.50;;;;;;;;5027712;28;12376;-70
2020/12/10 07:25:26;;;;;;;;;10.00;8.00;;;;;;;;5045264;28;11616;-70
2020/12/10 07:27:54;;;;;;;;;18.25;10.00;;;;;;;;5031474;28;11595;-70
2020/12/10 07:30:23;;;;;;;;;11.25;11.25;;;;;;;;5030458;28;11517;-70
2020/12/10 07:32:53;;;;;;;;;12.00;10.00;;;;;;;;5032882;28;11633;-70
2020/12/10 07:35:28;;;;;;;;;9.50;8.75;;;;;;;;5032317;28;11607;-70
2020/12/10 07:37:55;;;;;;;;;8.50;5.00;;;;;;;;5028218;28;11558;-70
2020/12/10 07:40:23;;;;;;;;;8.00;8.00;;;;;;;;5030391;28;11578;-70
2020/12/10 07:42:50;;;;;;;;;12.50;12.50;;;;;;;;5028671;28;11596;-70
2020/12/10 07:45:19;;;;;;;;;10.00;10.00;;;;;;;;5025995;28;11577;-70
2020/12/10 07:47:55;;;;;;;;;21.00;12.75;;;;;;;;5026402;28;11568;-70
2020/12/10 07:50:23;;;;;;;;;15.25;13.25;;;;;;;;5025656;28;11663;-70
2020/12/10 07:52:50;;;;;;;;;23.00;20.00;;;;;;;;5026990;28;12224;-70
2020/12/10 07:55:20;;;;;;;;;20.75;15.00;;;;;;;;5031077;28;11732;-70
2020/12/10 07:57:57;;;;;;;;;24.25;21.25;;;;;;;;5035760;28;11597;-70
2020/12/10 08:00:27;;;;;;;;;14.00;14.00;;;;;;;;5021522;28;11668;-71
2020/12/10 08:03:07;;;;;;;;;18.00;11.00;;;;;;;;5030840;28;11598;-71
2020/12/10 08:05:35;;;;;;;;;17.00;15.25;;;;;;;;5029010;28;11585;-70
2020/12/10 08:08:02;;;;;;;;;12.75;12.75;;;;;;;;5024930;28;11595;-70
2020/12/10 08:10:31;;;;;;;;;9.25;6.75;;;;;;;;5023856;28;11566;-70
2020/12/10 08:13:14;;;;;;;;;9.00;9.00;;;;;;;;5024440;28;11569;-70
2020/12/10 08:15:44;;;;;;;;;14.50;11.25;;;;;;;;5023184;28;11596;-70
2020/12/10 08:18:12;;;;;;;;;10.00;10.00;;;;;;;;5027071;28;11582;-71
2020/12/10 08:20:42;;;;;;;;;10.25;10.00;;;;;;;;5022600;28;12347;-70
2020/12/10 08:23:09;;;;;;;;;4.75;3.00;;;;;;;;5023429;28;11555;-70
2020/12/10 08:25:36;;;;;;;;;9.50;9.00;;;;;;;;5029374;28;11530;-70
2020/12/10 08:28:05;;;;;;;;;17.25;12.75;;;;;;;;5025431;28;11559;-70
2020/12/10 08:30:32;;;;;;;;;19.75;10.75;;;;;;;;5024489;28;11539;-70
2020/12/10 08:33:01;;;;;;;;;22.50;12.75;;;;;;;;5022603;28;11612;-71
2020/12/10 08:35:28;;;;;;;;;8.50;8.50;;;;;;;;5024644;28;11597;-70
2020/12/10 08:37:55;;;;;;;;;11.50;11.50;;;;;;;;5023677;28;11673;-70
2020/12/10 08:40:27;;;;;;;;;14.50;9.25;;;;;;;;5024021;28;11592;-70
2020/12/10 08:42:54;;;;;;;;;6.00;6.00;;;;;;;;5036092;28;11558;-71
2020/12/10 08:45:31;;;;;;;;;14.00;12.75;;;;;;;;5039315;28;11652;-70
2020/12/10 08:48:00;;;;;;;;;17.25;14.25;;;;;;;;5035321;28;11581;-71
2020/12/10 08:50:27;;;;;;;;;22.00;17.00;;;;;;;;5020333;28;11586;-70
2020/12/10 08:53:08;;;;;;;;;13.50;13.00;;;;;;;;5027807;28;11639;-70
2020/12/10 08:55:40;;;;;;;;;16.75;15.25;;;;;;;;5024690;28;11559;-70
2020/12/10 08:58:07;;;;;;;;;13.50;9.50;;;;;;;;5021482;28;11580;-70
2020/12/10 09:00:37;;;;;;;;;12.25;12.25;;;;;;;;5023308;28;11477;-70
2020/12/10 09:03:05;;;;;;;;;18.00;13.00;;;;;;;;5024799;28;11589;-70
2020/12/10 09:05:32;;;;;;;;;18.50;15.25;;;;;;;;5033078;28;11657;-71
2020/12/10 09:07:59;;;;;;;;;10.50;9.75;;;;;;;;5020916;28;11590;-71
2020/12/10 09:10:28;;;;;;;;;17.00;15.50;;;;;;;;5024909;28;11573;-70
2020/12/10 09:12:55;;;;;;;;;11.75;11.75;;;;;;;;5032725;28;11584;-70
2020/12/10 09:15:22;;;;;;;;;11.50;10.00;;;;;;;;5028888;28;11675;-70
2020/12/10 09:17:49;;;;;;;;;20.00;15.75;;;;;;;;5033716;28;11583;-70
2020/12/10 09:20:17;;;;;;;;;11.00;11.00;;;;;;;;5021959;28;12308;-70
2020/12/10 09:22:44;;;;;;;;;12.00;9.25;;;;;;;;5029758;28;11638;-71
2020/12/10 09:25:11;;;;;;;;;9.75;9.75;;;;;;;;5022061;28;11583;-70
2020/12/10 09:27:39;;;;;;;;;18.50;12.75;;;;;;;;5023783;28;11612;-71
2020/12/10 09:30:09;;;;;;;;;12.00;12.00;;;;;;;;5027908;28;12341;-70
2020/12/10 09:32:37;;;;;;;;;10.25;10.25;;;;;;;;5025069;28;11640;-70
2020/12/10 09:35:06;;;;;;;;;7.50;7.50;;;;;;;;5022759;28;11656;-70
2020/12/10 09:37:34;;;;;;;;;19.75;16.25;;;;;;;;5023746;28;11574;-70
2020/12/10 09:40:01;;;;;;;;;16.00;16.00;;;;;;;;5026530;28;11672;-70
2020/12/10 09:42:28;;;;;;;;;15.00;12.50;;;;;;;;5033262;28;11618;-70
2020/12/10 09:44:55;;;;;;;;;5.50;4.00;;;;;;;;5036008;28;11601;-70
2020/12/10 09:47:22;;;;;;;;;8.25;6.50;;;;;;;;5037446;28;11546;-70
2020/12/10 09:49:49;;;;;;;;;12.25;12.25;;;;;;;;5028488;28;11546;-70
2020/12/10 09:52:16;;;;;;;;;10.25;8.00;;;;;;;;5021607;28;11560;-70
2020/12/10 09:55:05;;;;;;;;;9.00;9.00;;;;;;;;5024580;28;11579;-70
2020/12/10 09:57:32;;;;;;;;;9.25;8.25;;;;;;;;5026534;28;11521;-70
2020/12/10 10:00:00;;;;;;;;;8.00;7.50;;;;;;;;5023060;28;11582;-70
2020/12/10 10:02:27;;;;;;;;;12.00;8.00;;;;;;;;5024966;28;11511;-70
2020/12/10 10:04:54;;;;;;;;;8.25;8.25;;;;;;;;5023955;28;11542;-71
2020/12/10 10:07:21;;;;;;;;;6.50;4.50;;;;;;;;5029446;28;11513;-70
2020/12/10 10:09:49;;;;;;;;;5.00;5.00;;;;;;;;5035648;28;12244;-71
2020/12/10 10:12:16;;;;;;;;;8.00;8.00;;;;;;;;5030625;28;11496;-71
2020/12/10 10:14:43;;;;;;;;;12.25;10.50;;;;;;;;5031399;28;11497;-71
2020/12/10 10:17:11;;;;;;;;;14.75;13.00;;;;;;;;5021650;28;11492;-70
2020/12/10 10:19:38;;;;;;;;;14.00;14.00;;;;;;;;5025594;28;11509;-71
2020/12/10 10:22:06;;;;;;;;;8.00;6.75;;;;;;;;5027610;28;11513;-71
2020/12/10 10:24:32;;;;;;;;;7.50;6.00;;;;;;;;5023883;28;11493;-70
2020/12/10 10:27:01;;;;;;;;;8.50;8.50;;;;;;;;5025083;28;11484;-71
2020/12/10 10:29:28;;;;;;;;;6.75;6.75;;;;;;;;5021601;28;11545;-70
2020/12/10 10:31:55;;;;;;;;;10.25;8.75;;;;;;;;5026372;28;11464;-71
2020/12/10 10:34:22;;;;;;;;;6.25;6.25;;;;;;;;5020349;28;11580;-71
2020/12/10 10:36:50;;;;;;;;;6.50;6.25;;;;;;;;5031181;28;11476;-71
2020/12/10 10:39:17;;;;;;;;;5.00;5.00;;;;;;;;5029557;28;11559;-70
2020/12/10 10:41:45;;;;;;;;;5.50;5.50;;;;;;;;5032480;28;11499;-71
2020/12/10 10:44:13;;;;;;;;;5.25;5.25;;;;;;;;5038340;28;11481;-71
2020/12/10 10:46:40;;;;;;;;;12.25;9.00;;;;;;;;5028378;28;11758;-71
2020/12/10 10:49:07;;;;;;;;;4.75;4.75;;;;;;;;5035837;28;11531;-71
2020/12/10 10:51:34;;;;;;;;;6.50;3.50;;;;;;;;5028333;28;11540;-71
2020/12/10 10:54:01;;;;;;;;;6.50;5.75;;;;;;;;5034467;28;11489;-71
2020/12/10 10:56:28;;;;;;;;;6.00;6.00;;;;;;;;5027380;28;11467;-71
2020/12/10 10:58:55;;;;;;;;;5.75;5.00;;;;;;;;5024918;28;11505;-71
2020/12/10 11:01:27;;;;;;;;;4.50;4.50;;;;;;;;5026339;28;11455;-71
2020/12/10 11:03:53;;;;;;;;;6.25;5.00;;;;;;;;5027112;28;11491;-70
2020/12/10 11:06:20;;;;;;;;;8.25;7.00;;;;;;;;5024765;28;11241;-70
2020/12/10 11:08:47;;;;;;;;;7.00;5.50;;;;;;;;5033077;28;11498;-70
2020/12/10 11:11:18;;;;;;;;;5.00;5.00;;;;;;;;5030880;28;12135;-71
2020/12/10 11:13:45;;;;;;;;;7.00;7.00;;;;;;;;5027588;28;11492;-70
2020/12/10 11:16:12;;;;;;;;;8.25;6.00;;;;;;;;5028965;28;11200;-70
2020/12/10 11:18:41;;;;;;;;;8.50;6.50;;;;;;;;5026727;28;11258;-70
2020/12/10 11:21:08;;;;;;;;;5.50;5.50;;;;;;;;5027926;28;11486;-71
2020/12/10 11:23:35;;;;;;;;;3.50;3.50;;;;;;;;5024740;28;11080;-70
2020/12/10 11:26:02;;;;;;;;;5.50;5.50;;;;;;;;5027097;28;11105;-70
2020/12/10 11:28:28;;;;;;;;;7.00;7.00;;;;;;;;5026913;28;11162;-70
2020/12/10 11:30:55;;;;;;;;;11.50;5.75;;;;;;;;5023997;28;12611;-70
2020/12/10 11:33:22;;;;;;;;;7.50;7.25;;;;;;;;5026366;28;11301;-70
2020/12/10 11:35:50;;;;;;;;;5.50;5.50;;;;;;;;5035032;28;11155;-71
2020/12/10 11:38:17;;;;;;;;;5.50;5.00;;;;;;;;5028264;28;11147;-70
2020/12/10 11:40:44;;;;;;;;;7.50;7.50;;;;;;;;5039182;28;12008;-71
2020/12/10 11:43:11;;;;;;;;;5.75;3.00;;;;;;;;5022552;28;11227;-70
2020/12/10 11:45:38;;;;;;;;;7.50;7.00;;;;;;;;5030034;28;11128;-69
2020/12/10 11:48:05;;;;;;;;;6.00;6.00;;;;;;;;5022889;28;11023;-70
2020/12/10 11:50:32;;;;;;;;;6.50;6.50;;;;;;;;5031118;28;10944;-71
2020/12/10 11:53:00;;;;;;;;;7.50;6.25;;;;;;;;5025997;28;11086;-70
2020/12/10 11:55:27;;;;;;;;;6.00;6.00;;;;;;;;5024805;28;11019;-71
2020/12/10 11:57:55;;;;;;;;;13.00;9.25;;;;;;;;5033875;28;11014;-70
2020/12/10 12:00:22;;;;;;;;;7.00;7.00;;;;;;;;5022519;28;11169;-70
2020/12/10 12:02:51;;;;;;;;;7.00;7.00;;;;;;;;5027456;28;11111;-71
2020/12/10 12:05:18;;;;;;;;;9.00;6.25;;;;;;;;5024372;28;10968;-71
2020/12/10 12:07:47;;;;;;;;;7.75;6.00;;;;;;;;5028202;28;10993;-70
2020/12/10 12:10:15;;;;;;;;;7.00;5.00;;;;;;;;5039385;28;10791;-71
2020/12/10 12:12:44;;;;;;;;;7.25;6.00;;;;;;;;5027313;28;10857;-71
2020/12/10 12:15:11;;;;;;;;;6.00;6.00;;;;;;;;5026814;28;10920;-70
2020/12/10 12:17:39;;;;;;;;;8.50;6.25;;;;;;;;5033591;28;10917;-70
2020/12/10 12:20:06;;;;;;;;;6.00;6.00;;;;;;;;5029503;28;10836;-70
2020/12/10 12:22:33;;;;;;;;;5.75;5.75;;;;;;;;5026754;28;10736;-70
2020/12/10 12:25:01;;;;;;;;;8.00;6.50;;;;;;;;5026582;28;10742;-69
2020/12/10 12:27:28;;;;;;;;;8.50;8.50;;;;;;;;5022319;28;10645;-71
2020/12/10 12:29:55;;;;;;;;;7.00;6.00;;;;;;;;5028075;28;10785;-70
2020/12/10 12:32:22;;;;;;;;;7.50;5.50;;;;;;;;5022605;28;10579;-70
2020/12/10 12:34:48;;;;;;;;;5.00;5.00;;;;;;;;5029663;28;10568;-71
2020/12/10 12:37:15;;;;;;;;;6.50;6.50;;;;;;;;5035230;28;10722;-70
2020/12/10 12:39:42;;;;;;;;;8.50;7.75;;;;;;;;5023476;28;10601;-71
2020/12/10 12:42:09;;;;;;;;;6.50;6.50;;;;;;;;5035830;28;11468;-70
2020/12/10 12:44:36;;;;;;;;;9.50;6.75;;;;;;;;5031788;28;10649;-70
2020/12/10 12:47:06;;;;;;;;;6.00;6.00;;;;;;;;5036930;28;10566;-70
2020/12/10 12:49:33;;;;;;;;;12.50;8.00;;;;;;;;5038643;28;10475;-70
2020/12/10 12:52:00;;;;;;;;;7.25;6.00;;;;;;;;5028849;28;10922;-70
2020/12/10 12:54:27;;;;;;;;;13.50;9.00;;;;;;;;5025457;28;10650;-70
2020/12/10 12:56:54;;;;;;;;;7.00;7.00;;;;;;;;5024213;28;11437;-70
2020/12/10 12:59:21;;;;;;;;;7.75;7.00;;;;;;;;5027384;28;10621;-70
2020/12/10 13:01:49;;;;;;;;;6.75;3.50;;;;;;;;5026024;28;10592;-70
2020/12/10 13:04:18;;;;;;;;;8.00;6.00;;;;;;;;5026000;28;10565;-70
2020/12/10 13:06:48;;;;;;;;;6.00;6.00;;;;;;;;5024937;28;11674;-70
2020/12/10 13:09:16;;;;;;;;;5.25;5.25;;;;;;;;5024108;28;10616;-70
2020/12/10 13:11:44;;;;;;;;;5.50;5.25;;;;;;;;5029810;28;10336;-70
2020/12/10 13:14:11;;;;;;;;;8.00;6.00;;;;;;;;5022508;28;10382;-70
2020/12/10 13:16:40;;;;;;;;;5.75;5.75;;;;;;;;5031437;28;10420;-70
2020/12/10 13:19:08;;;;;;;;;5.00;5.00;;;;;;;;5026544;28;10433;-70
2020/12/10 13:21:35;;;;;;;;;3.00;3.00;;;;;;;;5035737;28;10417;-71
2020/12/10 13:24:01;;;;;;;;;2.25;2.25;;;;;;;;5032911;28;10320;-71
2020/12/10 13:26:29;;;;;;;;;4.75;4.25;;;;;;;;5030287;28;10220;-70
2020/12/10 13:28:56;;;;;;;;;6.00;5.00;;;;;;;;5030128;28;10313;-70
2020/12/10 13:31:30;;;;;;;;;5.50;5.50;;;;;;;;5026109;28;10188;-70
2020/12/10 13:33:57;;;;;;;;;6.50;5.00;;;;;;;;5023648;28;10283;-70
2020/12/10 13:36:25;;;;;;;;;5.75;5.75;;;;;;;;5026988;28;11054;-70
2020/12/10 13:38:52;;;;;;;;;5.00;5.00;;;;;;;;5026097;28;10436;-70
2020/12/10 13:41:19;;;;;;;;;6.50;6.50;;;;;;;;5024288;28;10282;-70
2020/12/10 13:43:47;;;;;;;;;7.00;5.00;;;;;;;;5018159;28;10253;-70
2020/12/10 13:46:14;;;;;;;;;6.00;4.50;;;;;;;;5019759;28;10508;-70
2020/12/10 13:48:41;;;;;;;;;6.00;6.00;;;;;;;;5029230;28;10257;-70
2020/12/10 13:51:08;;;;;;;;;3.00;3.00;;;;;;;;5038223;28;11324;-70
2020/12/10 13:53:36;;;;;;;;;6.50;4.25;;;;;;;;5032996;28;10220;-70
2020/12/10 13:56:03;;;;;;;;;5.75;4.00;;;;;;;;5024260;28;10324;-70
2020/12/10 13:58:30;;;;;;;;;5.00;5.00;;;;;;;;5017192;28;10283;-70
2020/12/10 14:00:57;;;;;;;;;4.25;4.25;;;;;;;;5026780;28;10381;-70
2020/12/10 14:03:23;;;;;;;;;6.25;6.00;;;;;;;;5021797;28;10348;-70
2020/12/10 14:05:50;;;;;;;;;4.75;4.75;;;;;;;;5020445;28;10348;-70
2020/12/10 14:08:17;;;;;;;;;5.00;5.00;;;;;;;;5022259;28;10374;-70
2020/12/10 14:10:45;;;;;;;;;5.25;5.25;;;;;;;;5021723;28;10305;-70
2020/12/10 14:13:11;;;;;;;;;4.00;4.00;;;;;;;;5025152;28;10409;-70
2020/12/10 14:15:38;;;;;;;;;2.75;2.75;;;;;;;;5024738;28;10286;-70
2020/12/10 14:18:05;;;;;;;;;6.50;5.00;;;;;;;;5031150;28;10374;-70
2020/12/10 14:20:32;;;;;;;;;6.25;5.50;;;;;;;;5025064;28;10265;-70
2020/12/10 14:22:59;;;;;;;;;6.00;6.00;;;;;;;;5026364;28;10329;-70
2020/12/10 14:25:26;;;;;;;;;6.50;3.00;;;;;;;;5029011;28;10176;-70
2020/12/10 14:27:53;;;;;;;;;6.25;6.25;;;;;;;;5024659;28;10368;-70
2020/12/10 14:30:20;;;;;;;;;7.00;7.00;;;;;;;;5025146;28;10260;-70
2020/12/10 14:32:47;;;;;;;;;6.25;4.75;;;;;;;;5025195;28;10353;-70
2020/12/10 14:35:13;;;;;;;;;5.00;5.00;;;;;;;;5028674;28;11291;-70